Time;durP1;ratioP1;P1;durP2;ratioP2;P2;SDS_P1;SDS_P2;PMS_P1;PMS_P2;Temp;Humidity;BMP_temperature;BMP_pressure;BME280_temperature;BME280_humidity;BME280_pressure;Samples;Min_cycle;Max_cycle;Signal;HPM_P1;HPM_P2
2022/02/17 00:06:00;;;;;;;12.05;9.35;;;4.60;99.90;;;;;;5001407;28;20042;-82
2022/02/17 00:16:22;;;;;;;;;;;;;;;;;;;;;
2022/02/17 00:50:16;;;;;;;14.52;7.57;;;5.40;99.90;;;;;;5004657;28;20146;-83
2022/02/17 01:10:42;;;;;;;8.60;7.13;;;5.70;99.90;;;;;;5002103;28;20417;-83
2022/02/17 01:14:04;;;;;;;7.95;7.15;;;5.80;99.90;;;;;;5014521;28;20037;-83
2022/02/17 01:27:31;;;;;;;10.60;7.00;;;6.30;99.90;;;;;;4946619;29;20066;-82
2022/02/17 02:01:47;;;;;;;8.80;6.40;;;6.70;99.90;;;;;;4865220;29;20067;-82
2022/02/17 02:53:48;;;;;;;;;;;;;;;;;;;;;
2022/02/17 05:24:50;;;;;;;10.27;6.50;;;6.90;99.90;;;;;;4906691;29;20039;-83
2022/02/17 05:27:42;;;;;;;8.23;6.10;;;6.90;99.90;;;;;;4913265;29;20040;-84
2022/02/17 05:30:54;;;;;;;7.95;7.15;;;6.90;99.90;;;;;;4923339;29;20038;-83
2022/02/17 05:33:25;;;;;;;8.68;6.95;;;7.00;99.90;;;;;;4921312;29;20048;-84
2022/02/17 05:39:23;;;;;;;9.50;8.07;;;7.00;99.90;;;;;;5000757;28;20645;-84
2022/02/17 05:42:33;;;;;;;;;;;;;;;;;;;;;
2022/02/17 05:45:04;;;;;;;11.82;8.52;;;7.00;99.90;;;;;;5010091;28;20504;-83
2022/02/17 05:48:05;;;;;;;11.60;7.40;;;7.00;99.90;;;;;;5022897;28;20112;-84
2022/02/17 05:50:50;;;;;;;11.32;7.97;;;7.00;99.90;;;;;;5024968;28;20029;-84
2022/02/17 05:53:19;;;;;;;11.88;7.75;;;7.10;99.90;;;;;;5026213;28;20036;-83
2022/02/17 05:55:50;;;;;;;10.00;7.63;;;7.10;99.90;;;;;;5022863;28;20030;-84
2022/02/17 05:58:27;;;;;;;9.45;7.88;;;7.10;99.90;;;;;;5017227;28;20025;-84
2022/02/17 06:01:10;;;;;;;8.98;7.18;;;7.10;99.90;;;;;;5001774;28;20045;-84
2022/02/17 06:07:23;;;;;;;11.35;7.70;;;7.10;99.90;;;;;;4976996;28;20436;-84
2022/02/17 06:09:55;;;;;;;12.68;7.63;;;7.10;99.90;;;;;;4977328;28;20401;-84
2022/02/17 06:12:42;;;;;;;14.90;6.80;;;7.10;99.90;;;;;;5010586;28;20042;-84
2022/02/17 06:15:27;;;;;;;9.23;7.25;;;7.10;99.90;;;;;;5005876;28;20060;-84
2022/02/17 06:17:53;;;;;;;8.70;7.03;;;7.10;99.90;;;;;;5039502;28;20125;-84
2022/02/17 06:20:19;;;;;;;10.98;7.97;;;7.10;99.90;;;;;;5042168;28;20033;-84
2022/02/17 06:23:02;;;;;;;11.90;8.35;;;7.10;99.90;;;;;;5040450;28;20026;-84
2022/02/17 06:25:28;;;;;;;;;;;7.20;99.90;;;;;;5047349;28;20113;-84
2022/02/17 06:28:02;;;;;;;9.55;7.00;;;7.20;99.90;;;;;;5045940;28;20008;-83
2022/02/17 06:30:31;;;;;;;10.95;7.15;;;7.20;99.90;;;;;;5045161;28;20096;-84
2022/02/17 06:33:02;;;;;;;12.65;7.75;;;7.20;99.90;;;;;;5045448;28;20025;-84
2022/02/17 06:35:48;;;;;;;9.55;7.88;;;7.20;99.90;;;;;;5041260;28;20032;-84
2022/02/17 06:38:41;;;;;;;12.52;7.93;;;7.20;99.90;;;;;;5033564;28;20061;-84
2022/02/17 06:41:12;;;;;;;13.93;9.05;;;7.30;99.90;;;;;;5048673;28;20618;-83
2022/02/17 06:43:44;;;;;;;13.05;10.65;;;7.30;99.90;;;;;;5018937;28;20404;-82
2022/02/17 06:46:12;;;;;;;12.98;10.02;;;7.30;99.90;;;;;;5039042;28;20110;-82
2022/02/17 06:49:09;;;;;;;20.75;13.82;;;7.40;99.90;;;;;;5040943;28;20026;-88
2022/02/17 06:51:38;;;;;;;17.55;13.77;;;7.40;99.90;;;;;;5021842;28;20030;-82
2022/02/17 06:54:07;;;;;;;24.92;15.20;;;7.50;99.90;;;;;;5050270;28;20028;-84
2022/02/17 06:56:56;;;;;;;22.90;15.70;;;7.60;99.90;;;;;;5024746;28;20040;-83
2022/02/17 06:59:34;;;;;;;27.70;15.10;;;7.60;99.90;;;;;;5013240;28;20056;-83
2022/02/17 07:02:14;;;;;;;20.98;14.88;;;7.70;99.90;;;;;;5023613;28;20032;-83
2022/02/17 07:04:44;;;;;;;21.02;15.45;;;7.70;99.90;;;;;;5028315;28;20033;-84
2022/02/17 07:07:24;;;;;;;25.63;15.60;;;7.70;99.90;;;;;;5028310;28;21454;-84
2022/02/17 07:10:09;;;;;;;25.15;17.55;;;7.70;99.90;;;;;;5048633;28;20025;-81
2022/02/17 07:12:45;;;;;;;25.42;17.98;;;7.80;99.90;;;;;;5025707;28;20028;-85
2022/02/17 07:15:49;;;;;;;;;;;;;;;;;;;;;
2022/02/17 07:18:18;;;;;;;23.67;16.20;;;7.90;99.90;;;;;;4989103;28;20037;-84
2022/02/17 07:20:53;;;;;;;24.35;17.42;;;8.00;99.90;;;;;;5029101;28;20056;-84
2022/02/17 07:23:20;;;;;;;23.73;17.85;;;8.00;99.90;;;;;;5018882;28;20026;-84
2022/02/17 07:26:32;;;;;;;24.08;17.67;;;8.10;99.90;;;;;;5046135;28;20179;-83
2022/02/17 07:32:15;;;;;;;29.70;17.30;;;8.30;99.90;;;;;;5002724;28;20160;-84
2022/02/17 07:34:47;;;;;;;24.45;17.38;;;8.40;99.90;;;;;;5048258;28;20044;-84
2022/02/17 07:37:16;;;;;;;23.83;16.17;;;8.50;99.90;;;;;;5042241;28;20059;-84
2022/02/17 07:40:06;;;;;;;22.65;17.13;;;8.70;99.90;;;;;;5041986;28;20029;-84
2022/02/17 07:45:41;;;;;;;19.95;15.38;;;8.90;99.90;;;;;;5038631;28;20039;-84
2022/02/17 07:48:13;;;;;;;24.80;17.15;;;9.00;99.90;;;;;;5027681;28;20036;-84
2022/02/17 07:50:45;;;;;;;20.75;14.45;;;9.10;99.90;;;;;;5042677;28;20032;-85
2022/02/17 07:53:31;;;;;;;20.20;15.35;;;9.10;99.90;;;;;;5046042;28;20035;-84
2022/02/17 07:56:20;;;;;;;19.40;13.25;;;9.20;99.90;;;;;;5022494;28;20037;-85
2022/02/17 07:58:58;;;;;;;19.73;12.65;;;9.20;99.90;;;;;;5044066;28;20502;-84
2022/02/17 08:04:25;;;;;;;16.13;11.55;;;9.30;99.90;;;;;;5026466;28;20038;-84
2022/02/17 08:06:51;;;;;;;13.25;11.30;;;9.30;99.90;;;;;;5041151;28;20037;-85
2022/02/17 08:09:23;;;;;;;15.63;11.65;;;9.50;99.90;;;;;;5044445;28;20083;-84
2022/02/17 08:11:49;;;;;;;16.90;11.05;;;9.60;99.90;;;;;;5037843;28;20032;-85
2022/02/17 08:14:15;;;;;;;19.58;11.70;;;9.80;99.90;;;;;;5037935;28;20038;-85
2022/02/17 08:16:48;;;;;;;15.18;11.32;;;9.80;99.90;;;;;;5023921;28;20091;-84
2022/02/17 08:19:28;;;;;;;15.32;10.93;;;9.90;99.90;;;;;;5058990;28;20474;-84
2022/02/17 08:22:01;;;;;;;15.60;10.77;;;9.90;99.90;;;;;;5037155;28;20492;-84
2022/02/17 08:24:50;;;;;;;15.27;11.05;;;10.00;99.90;;;;;;5037907;28;20017;-84
2022/02/17 08:27:34;;;;;;;11.95;10.20;;;10.00;99.90;;;;;;5035191;28;20071;-84
2022/02/17 08:30:36;;;;;;;18.40;11.40;;;10.10;99.90;;;;;;5052428;28;20099;-84
2022/02/17 08:33:37;;;;;;;13.27;10.20;;;10.10;99.90;;;;;;5042822;28;20033;-84
2022/02/17 08:36:23;;;;;;;14.50;8.48;;;10.20;99.90;;;;;;5018381;28;20589;-84
2022/02/17 08:38:49;;;;;;;15.85;12.40;;;10.30;99.90;;;;;;5047800;28;20032;-84
2022/02/17 08:41:20;;;;;;;14.93;10.73;;;10.50;99.90;;;;;;5044737;28;20029;-84
2022/02/17 08:44:20;;;;;;;15.63;10.35;;;10.70;99.90;;;;;;5046161;28;20036;-84
2022/02/17 08:50:07;;;;;;;9.68;7.57;;;11.30;99.90;;;;;;4941624;28;20039;-84
2022/02/17 08:52:57;;;;;;;;;;;;;;;;;;;;;
2022/02/17 08:55:23;;;;;;;13.13;9.40;;;11.90;99.90;;;;;;4942391;28;20043;-84
2022/02/17 08:57:53;;;;;;;12.23;7.82;;;12.20;99.90;;;;;;4939144;29;20057;-85
2022/02/17 09:00:20;;;;;;;11.75;9.02;;;12.40;99.90;;;;;;4996605;28;20071;-84
2022/02/17 09:02:51;;;;;;;13.55;9.65;;;12.60;99.90;;;;;;5049655;28;20034;-84
2022/02/17 09:05:20;;;;;;;17.83;11.15;;;12.60;99.90;;;;;;5023257;28;20113;-83
2022/02/17 09:07:58;;;;;;;16.35;12.85;;;12.70;99.90;;;;;;5062665;28;20018;-83
2022/02/17 09:10:27;;;;;;;26.00;18.40;;;12.80;99.90;;;;;;5074185;28;20028;-83
2022/02/17 09:12:56;;;;;;;24.63;18.42;;;12.70;99.90;;;;;;5022104;28;20087;-84
2022/02/17 09:15:25;;;;;;;26.00;19.75;;;12.40;99.90;;;;;;5049814;28;20041;-84
2022/02/17 09:17:53;;;;;;;29.27;22.02;;;12.20;99.90;;;;;;5060028;28;20096;-84
2022/02/17 09:20:23;;;;;;;39.72;24.92;;;11.80;99.90;;;;;;5058067;28;20037;-84
2022/02/17 09:22:49;;;;;;;96.72;38.40;;;11.60;99.90;;;;;;5040059;28;20155;-84
2022/02/17 09:28:43;;;;;;;24.55;15.98;;;12.20;99.90;;;;;;5034660;28;20028;-84
2022/02/17 09:31:13;;;;;;;19.45;13.80;;;12.60;99.90;;;;;;5032668;28;20033;-85
2022/02/17 09:33:39;;;;;;;19.63;13.95;;;12.70;99.90;;;;;;5033717;28;20021;-82
2022/02/17 09:36:33;;;;;;;23.80;15.40;;;12.90;99.90;;;;;;5043104;28;20026;-84
2022/02/17 09:39:02;;;;;;;22.40;11.63;;;13.20;99.90;;;;;;5042038;28;20025;-84
2022/02/17 09:41:46;;;;;;;13.70;11.23;;;13.40;99.90;;;;;;5047856;28;20086;-84
2022/02/17 09:44:14;;;;;;;14.85;10.65;;;13.60;99.90;;;;;;5050816;28;20025;-83
2022/02/17 09:46:46;;;;;;;31.92;14.70;;;13.80;99.90;;;;;;5030979;28;20631;-84
2022/02/17 09:49:17;;;;;;;13.38;10.00;;;13.80;99.90;;;;;;5036282;28;20403;-84
2022/02/17 09:51:53;;;;;;;12.05;8.30;;;14.00;99.90;;;;;;5028067;28;20040;-84
2022/02/17 09:54:28;;;;;;;17.45;10.13;;;14.10;99.90;;;;;;5038564;28;20036;-84
2022/02/17 09:57:02;;;;;;;22.58;13.10;;;14.10;99.90;;;;;;5044098;28;20054;-84
2022/02/17 09:59:28;;;;;;;26.00;14.57;;;14.20;99.90;;;;;;5043454;28;20475;-83
2022/02/17 10:02:18;;;;;;;20.02;15.80;;;14.30;99.90;;;;;;5047407;28;20024;-85
2022/02/17 10:04:55;;;;;;;23.92;16.60;;;14.20;99.90;;;;;;5044752;28;20025;-84
2022/02/17 10:07:37;;;;;;;27.10;17.65;;;14.20;99.90;;;;;;5049912;28;20028;-85
2022/02/17 10:10:05;;;;;;;29.65;19.65;;;14.30;99.90;;;;;;5040383;28;20052;-84
2022/02/17 10:13:17;;;;;;;;;;;;;;;;;;;;;
2022/02/17 10:15:43;;;;;;;32.10;21.90;;;14.00;99.90;;;;;;5039153;28;20074;-84
2022/02/17 10:18:12;;;;;;;39.88;26.02;;;14.10;99.90;;;;;;5051408;28;20036;-85
2022/02/17 10:20:58;;;;;;;35.70;23.33;;;14.00;99.90;;;;;;5045486;28;20128;-84
2022/02/17 10:23:27;;;;;;;31.92;22.08;;;13.90;99.90;;;;;;5039857;28;20472;-84
2022/02/17 10:26:27;;;;;;;34.75;22.90;;;13.80;99.90;;;;;;5021873;28;20392;-84
2022/02/17 10:29:22;;;;;;;33.75;23.40;;;13.50;99.90;;;;;;5045421;28;20061;-83
2022/02/17 10:32:03;;;;;;;33.38;23.00;;;13.60;99.90;;;;;;5032243;28;20090;-84
2022/02/17 10:34:38;;;;;;;31.80;24.48;;;13.80;99.90;;;;;;5049719;28;20154;-84
2022/02/17 10:37:16;;;;;;;33.95;23.92;;;14.30;99.90;;;;;;5059564;28;20087;-83
2022/02/17 10:39:53;;;;;;;34.50;26.05;;;14.60;99.90;;;;;;5043601;28;20495;-83
2022/02/17 10:42:19;;;;;;;31.42;24.45;;;14.70;99.90;;;;;;5047981;28;20139;-84
2022/02/17 10:44:54;;;;;;;35.92;25.88;;;14.70;99.90;;;;;;5050536;28;20025;-84
2022/02/17 10:47:39;;;;;;;36.13;26.48;;;14.60;99.90;;;;;;5047228;28;20033;-84
2022/02/17 10:50:05;;;;;;;35.78;26.10;;;14.50;99.90;;;;;;5028036;28;20522;-83
2022/02/17 10:52:37;;;;;;;31.80;25.08;;;14.40;99.90;;;;;;5039893;28;20064;-84
2022/02/17 10:55:21;;;;;;;35.63;25.43;;;14.20;99.90;;;;;;5035909;28;20025;-83
2022/02/17 10:57:59;;;;;;;32.40;24.45;;;14.20;99.90;;;;;;5036473;28;20343;-84
2022/02/17 11:00:30;;;;;;;33.45;25.13;;;14.30;99.90;;;;;;5021974;28;20061;-84
2022/02/17 11:03:24;;;;;;;35.80;24.40;;;14.30;99.90;;;;;;5021985;28;20033;-84
2022/02/17 11:06:16;;;;;;;33.15;23.98;;;14.30;99.90;;;;;;5041542;28;20175;-83
2022/02/17 11:09:29;;;;;;;36.73;26.57;;;14.20;99.90;;;;;;5035035;28;20029;-84
2022/02/17 11:12:09;;;;;;;35.90;25.10;;;14.00;99.90;;;;;;5024427;28;20283;-84
2022/02/17 11:14:50;;;;;;;37.60;25.90;;;14.10;99.90;;;;;;5037890;28;20025;-84
2022/02/17 11:17:25;;;;;;;36.22;26.02;;;13.90;99.90;;;;;;5042170;28;20496;-84
2022/02/17 11:19:54;;;;;;;38.95;26.85;;;13.70;99.90;;;;;;5037217;28;20111;-84
2022/02/17 11:22:28;;;;;;;40.20;25.50;;;13.80;99.90;;;;;;5041492;28;20163;-84
2022/02/17 11:24:55;;;;;;;32.35;24.83;;;14.00;99.90;;;;;;5045352;28;20036;-84
2022/02/17 11:27:23;;;;;;;35.83;24.65;;;14.10;99.90;;;;;;5044838;28;20404;-84
2022/02/17 11:29:55;;;;;;;36.70;25.20;;;14.10;99.90;;;;;;5018705;28;20037;-83
2022/02/17 11:32:27;;;;;;;32.72;24.85;;;13.70;99.90;;;;;;5025837;28;20029;-84
2022/02/17 11:34:55;;;;;;;32.67;23.23;;;13.90;99.90;;;;;;5043703;28;20037;-84
2022/02/17 11:37:57;;;;;;;30.27;22.38;;;14.10;99.90;;;;;;5026507;28;20539;-84
2022/02/17 11:40:23;;;;;;;32.33;23.92;;;14.30;99.90;;;;;;5037454;28;20040;-85
2022/02/17 11:43:05;;;;;;;32.38;24.02;;;14.20;99.90;;;;;;5037450;28;20022;-83
2022/02/17 11:45:44;;;;;;;29.90;20.90;;;14.40;99.90;;;;;;5044846;28;20025;-82
2022/02/17 11:48:16;;;;;;;28.90;21.98;;;14.90;99.90;;;;;;5034834;28;20142;-83
2022/02/17 11:50:42;;;;;;;;;;;14.90;99.90;;;;;;5042608;28;20079;-82
2022/02/17 11:53:49;;;;;;;29.15;21.63;;;14.50;99.90;;;;;;5042598;28;19956;-83
2022/02/17 11:56:36;;;;;;;29.80;20.63;;;14.40;99.90;;;;;;5043978;28;20044;-84
2022/02/17 11:59:18;;;;;;;25.60;19.85;;;15.10;99.90;;;;;;5043757;28;20044;-84
2022/02/17 12:01:44;;;;;;;26.75;19.38;;;15.80;99.90;;;;;;5030057;28;20487;-84
2022/02/17 12:04:41;;;;;;;25.00;18.13;;;15.60;99.90;;;;;;5028925;28;20040;-84
2022/02/17 12:07:41;;;;;;;25.70;19.92;;;15.50;99.90;;;;;;5041880;28;20021;-84
2022/02/17 12:10:29;;;;;;;23.95;17.13;;;15.20;99.90;;;;;;5037873;28;20041;-84
2022/02/17 12:13:00;;;;;;;22.67;18.38;;;15.00;99.90;;;;;;5039940;28;20017;-84
2022/02/17 12:15:27;;;;;;;24.02;18.50;;;14.80;99.90;;;;;;5023748;28;20032;-85
2022/02/17 12:17:55;;;;;;;27.52;18.27;;;14.80;99.90;;;;;;5036697;28;20025;-87
2022/02/17 12:20:24;;;;;;;27.05;18.33;;;15.00;99.90;;;;;;5037665;28;20017;-84
2022/02/17 12:23:08;;;;;;;27.13;17.67;;;14.80;99.90;;;;;;5033492;28;20032;-84
2022/02/17 12:25:44;;;;;;;24.25;16.00;;;14.90;99.90;;;;;;5039761;28;20476;-84
2022/02/17 12:28:13;;;;;;;32.22;18.67;;;14.60;99.90;;;;;;5042729;28;20025;-85
2022/02/17 12:30:50;;;;;;;32.55;25.10;;;14.20;99.90;;;;;;5042379;28;20088;-85
2022/02/17 12:33:30;;;;;;;38.00;25.45;;;13.70;99.90;;;;;;5041469;28;20032;-84
2022/02/17 12:36:09;;;;;;;37.38;26.67;;;13.20;99.90;;;;;;5024796;28;20040;-85
2022/02/17 12:38:38;;;;;;;33.63;26.20;;;12.80;99.90;;;;;;5046057;28;20025;-85
2022/02/17 12:41:12;;;;;;;38.75;25.60;;;12.90;99.90;;;;;;5023916;28;20460;-84
2022/02/17 12:43:42;;;;;;;36.53;27.67;;;12.70;99.90;;;;;;5021675;28;20531;-84
2022/02/17 12:46:17;;;;;;;39.60;28.88;;;12.30;99.90;;;;;;5020973;28;20097;-85
2022/02/17 12:48:52;;;;;;;37.70;27.88;;;12.00;99.90;;;;;;5035520;28;20029;-84
2022/02/17 12:51:33;;;;;;;42.03;28.58;;;11.70;99.90;;;;;;5037346;28;20026;-83
2022/02/17 12:54:24;;;;;;;39.20;29.45;;;11.40;99.90;;;;;;5046265;28;20060;-84
2022/02/17 12:57:31;;;;;;;36.75;27.40;;;11.20;99.90;;;;;;5039259;28;20037;-84
2022/02/17 13:00:11;;;;;;;39.75;28.38;;;11.30;99.90;;;;;;5044322;28;20124;-84
2022/02/17 13:02:54;;;;;;;37.35;27.15;;;11.50;99.90;;;;;;5027360;28;20056;-84
2022/02/17 13:08:16;;;;;;;38.17;29.27;;;11.60;99.90;;;;;;5055398;28;20472;-84
2022/02/17 13:10:48;;;;;;;51.88;32.33;;;11.50;99.90;;;;;;5044243;28;20128;-84
2022/02/17 13:13:27;;;;;;;64.43;44.80;;;11.30;99.90;;;;;;5033344;28;20040;-82
2022/02/17 13:15:56;;;;;;;71.65;48.85;;;11.10;99.90;;;;;;5063047;28;20288;-83
2022/02/17 13:18:22;;;;;;;70.97;49.50;;;11.10;99.90;;;;;;5054857;28;20068;-83
2022/02/17 13:20:53;;;;;;;70.90;49.90;;;11.10;99.90;;;;;;5042606;28;20025;-83
2022/02/17 13:23:22;;;;;;;68.85;52.45;;;11.00;99.90;;;;;;5041674;28;20021;-83
2022/02/17 13:25:59;;;;;;;74.25;51.97;;;10.50;99.90;;;;;;5041204;28;20481;-84
2022/02/17 13:28:31;;;;;;;68.07;51.80;;;10.40;99.90;;;;;;5042798;28;20024;-84
2022/02/17 13:31:33;;;;;;;73.65;54.95;;;10.40;99.90;;;;;;5018030;28;20428;-84
2022/02/17 13:34:23;;;;;;;66.70;50.28;;;10.40;99.90;;;;;;5030826;28;20022;-84
2022/02/17 13:36:49;;;;;;;63.92;49.83;;;9.90;99.90;;;;;;5040482;28;20037;-83
2022/02/17 13:39:18;;;;;;;63.55;47.50;;;9.70;99.90;;;;;;5042175;28;20229;-84
2022/02/17 13:42:01;;;;;;;64.53;51.38;;;9.80;99.90;;;;;;5042759;28;20037;-83
2022/02/17 13:44:32;;;;;;;76.95;54.85;;;9.80;99.90;;;;;;5034010;28;20031;-82
2022/02/17 13:47:01;;;;;;;70.95;52.50;;;9.60;99.90;;;;;;5045213;28;20040;-83
2022/02/17 13:49:29;;;;;;;68.93;53.15;;;9.50;99.90;;;;;;5045736;28;20044;-82
2022/02/17 13:52:00;;;;;;;71.60;53.25;;;9.50;99.90;;;;;;5043834;28;20034;-83
2022/02/17 13:54:58;;;;;;;67.72;53.65;;;9.50;99.90;;;;;;5033864;28;20097;-83
2022/02/17 13:57:28;;;;;;;68.43;54.78;;;9.40;99.90;;;;;;5017974;28;20091;-82
2022/02/17 14:00:07;;;;;;;68.05;53.75;;;9.40;99.90;;;;;;5043352;28;20400;-83
2022/02/17 14:02:33;;;;;;;74.45;55.95;;;9.30;99.90;;;;;;5040386;28;20084;-82
2022/02/17 14:05:10;;;;;;;69.20;56.00;;;9.40;99.90;;;;;;5023007;28;20032;-83
2022/02/17 14:07:40;;;;;;;68.88;54.65;;;9.40;99.90;;;;;;5038481;28;20035;-82
2022/02/17 14:10:13;;;;;;;72.00;57.85;;;9.30;99.90;;;;;;5040374;28;20043;-83
2022/02/17 14:12:59;;;;;;;69.78;57.10;;;9.20;99.90;;;;;;5039829;28;20079;-84
2022/02/17 14:15:31;;;;;;;73.22;58.78;;;9.20;99.90;;;;;;5042584;28;20049;-83
2022/02/17 14:17:59;;;;;;;68.93;58.60;;;9.10;99.90;;;;;;5023285;28;20029;-83
2022/02/17 14:20:38;;;;;;;75.72;60.13;;;9.00;99.90;;;;;;5045386;28;20060;-82
2022/02/17 14:23:09;;;;;;;71.25;57.40;;;8.80;99.90;;;;;;5044497;28;20029;-81
2022/02/17 14:25:36;;;;;;;71.88;58.58;;;8.80;99.90;;;;;;5045223;28;20029;-81
2022/02/17 14:28:10;;;;;;;73.45;60.28;;;8.70;99.90;;;;;;5042249;28;20026;-82
2022/02/17 14:30:37;;;;;;;70.90;58.45;;;8.60;99.90;;;;;;5042499;28;20090;-80
2022/02/17 14:33:10;;;;;;;72.05;59.72;;;8.50;99.90;;;;;;5049842;28;20025;-80
2022/02/17 14:35:40;;;;;;;69.28;58.70;;;8.50;99.90;;;;;;5044488;28;20551;-82
2022/02/17 14:38:14;;;;;;;70.75;54.15;;;8.40;99.90;;;;;;5043447;28;20026;-81
2022/02/17 14:40:42;;;;;;;63.90;50.95;;;8.50;99.90;;;;;;5049779;28;20052;-81
2022/02/17 14:43:20;;;;;;;63.10;50.20;;;8.50;99.90;;;;;;5047273;28;20522;-81
2022/02/17 14:45:48;;;;;;;52.58;44.80;;;8.60;99.90;;;;;;5054623;28;20024;-80
2022/02/17 14:48:15;;;;;;;51.53;42.90;;;8.70;99.90;;;;;;5041794;28;20036;-81
2022/02/17 14:50:41;;;;;;;57.65;44.45;;;8.90;99.90;;;;;;5042121;28;20036;-81
2022/02/17 14:53:06;;;;;;;54.08;43.15;;;9.00;99.90;;;;;;5045079;28;20021;-82
2022/02/17 14:55:32;;;;;;;53.70;43.40;;;8.90;99.90;;;;;;5045487;28;20541;-81
2022/02/17 14:57:58;;;;;;;55.47;42.22;;;9.00;99.90;;;;;;5041776;28;20615;-81
2022/02/17 15:00:24;;;;;;;55.20;42.33;;;9.00;99.90;;;;;;5041532;28;20423;-82
2022/02/17 15:02:50;;;;;;;61.75;44.08;;;9.20;99.90;;;;;;5042015;28;20064;-81
2022/02/17 15:05:19;;;;;;;57.22;43.15;;;9.30;99.90;;;;;;5040984;28;20093;-81
2022/02/17 15:07:45;;;;;;;61.05;44.33;;;9.30;99.90;;;;;;5043132;28;20052;-81
2022/02/17 15:10:11;;;;;;;60.92;44.20;;;9.20;99.90;;;;;;5045700;28;20025;-81
2022/02/17 15:12:42;;;;;;;60.83;47.20;;;9.00;99.90;;;;;;5047529;28;20529;-81
2022/02/17 15:15:11;;;;;;;68.20;48.00;;;8.80;99.90;;;;;;5052272;28;20479;-81
2022/02/17 15:17:37;;;;;;;57.00;44.53;;;8.50;99.90;;;;;;5046894;28;20055;-80
2022/02/17 15:20:13;;;;;;;56.17;44.10;;;8.30;99.90;;;;;;5045050;28;20052;-81
2022/02/17 15:22:39;;;;;;;61.75;46.67;;;8.30;99.90;;;;;;5044952;28;20026;-82
2022/02/17 15:25:06;;;;;;;60.00;45.38;;;8.20;99.90;;;;;;5051219;28;20387;-82
2022/02/17 15:27:31;;;;;;;59.78;46.85;;;8.20;99.90;;;;;;5048824;28;20024;-81
2022/02/17 15:30:02;;;;;;;69.43;46.70;;;8.20;99.90;;;;;;5049053;28;20512;-82
2022/02/17 15:32:28;;;;;;;63.78;47.75;;;8.20;99.90;;;;;;5046100;28;20021;-82
2022/02/17 15:34:54;;;;;;;70.80;49.70;;;8.10;99.90;;;;;;5049422;28;20371;-81
2022/02/17 15:37:23;;;;;;;64.20;48.28;;;8.00;99.90;;;;;;5047692;28;20025;-83
2022/02/17 15:39:57;;;;;;;66.30;47.22;;;7.90;99.90;;;;;;5019791;28;20033;-80
2022/02/17 15:43:05;;;;;;;72.78;48.70;;;8.00;99.90;;;;;;5028476;28;20376;-82
2022/02/17 15:45:28;;;;;;;61.78;47.53;;;8.00;99.90;;;;;;5046114;28;20033;-82
2022/02/17 15:48:02;;;;;;;64.85;50.08;;;8.00;99.90;;;;;;5045743;28;20158;-82
2022/02/17 15:50:28;;;;;;;68.32;49.72;;;7.90;99.90;;;;;;5048130;28;20060;-81
2022/02/17 15:52:57;;;;;;;69.75;49.97;;;7.90;99.90;;;;;;5025523;28;20488;-83
2022/02/17 15:55:26;;;;;;;70.88;50.03;;;7.90;99.90;;;;;;5040703;28;20041;-84
2022/02/17 15:58:01;;;;;;;75.85;48.85;;;8.00;99.90;;;;;;5028558;28;20124;-84
2022/02/17 16:00:27;;;;;;;71.18;49.38;;;8.10;99.90;;;;;;5049546;28;20032;-80
2022/02/17 16:02:57;;;;;;;65.47;49.55;;;8.10;99.90;;;;;;5042827;28;20022;-83
2022/02/17 16:05:23;;;;;;;66.60;51.20;;;8.10;99.90;;;;;;5045845;28;20025;-84
2022/02/17 16:07:50;;;;;;;65.05;50.88;;;8.00;99.90;;;;;;5023557;28;20027;-82
2022/02/17 16:10:15;;;;;;;68.90;51.13;;;7.90;99.90;;;;;;5044992;28;20106;-81
2022/02/17 16:12:42;;;;;;;68.90;51.28;;;7.90;99.90;;;;;;5047105;28;20024;-82
2022/02/17 16:15:15;;;;;;;61.28;47.47;;;7.90;99.90;;;;;;5054897;28;20021;-82
2022/02/17 16:17:41;;;;;;;67.13;50.95;;;8.00;99.90;;;;;;5046973;28;20036;-81
2022/02/17 16:20:09;;;;;;;60.28;49.13;;;7.90;99.90;;;;;;5049068;28;20021;-82
2022/02/17 16:22:40;;;;;;;62.10;49.33;;;7.90;99.90;;;;;;5046119;28;20024;-80
2022/02/17 16:25:07;;;;;;;64.95;49.40;;;7.90;99.90;;;;;;5030394;28;20083;-81
2022/02/17 16:27:35;;;;;;;67.25;49.85;;;7.80;99.90;;;;;;5045550;28;20024;-80
2022/02/17 16:30:02;;;;;;;66.32;50.30;;;7.80;99.90;;;;;;5048136;28;20048;-82
2022/02/17 16:32:27;;;;;;;63.92;50.40;;;7.80;99.90;;;;;;5028855;28;20032;-81
2022/02/17 16:34:53;;;;;;;71.00;51.10;;;7.80;99.90;;;;;;5048318;28;20646;-81
2022/02/17 16:37:19;;;;;;;63.78;51.55;;;7.80;99.90;;;;;;5044584;28;20630;-82
2022/02/17 16:39:45;;;;;;;67.80;51.15;;;7.80;99.90;;;;;;5039260;28;20361;-82
2022/02/17 16:42:11;;;;;;;69.88;54.40;;;7.80;99.90;;;;;;5040234;28;20040;-82
2022/02/17 16:44:37;;;;;;;71.40;56.58;;;7.80;99.90;;;;;;5034758;28;20033;-81
2022/02/17 16:47:06;;;;;;;72.97;55.38;;;7.70;99.90;;;;;;5025248;28;20602;-81
2022/02/17 16:49:32;;;;;;;80.53;58.20;;;7.70;99.90;;;;;;5017120;28;20032;-84
2022/02/17 16:51:58;;;;;;;76.35;60.25;;;7.70;99.90;;;;;;5027300;28;20095;-81
2022/02/17 16:54:24;;;;;;;81.05;60.47;;;7.70;99.90;;;;;;5034732;28;20484;-78
2022/02/17 16:56:50;;;;;;;79.47;59.63;;;7.60;99.90;;;;;;5043956;28;21443;-83
2022/02/17 16:59:16;;;;;;;79.18;60.88;;;7.60;99.90;;;;;;5035545;28;20575;-82
2022/02/17 17:01:44;;;;;;;87.32;61.78;;;7.60;99.90;;;;;;5039139;28;20117;-82
2022/02/17 17:04:10;;;;;;;85.88;64.25;;;7.60;99.90;;;;;;5029199;28;20392;-82
2022/02/17 17:06:36;;;;;;;84.65;64.07;;;7.60;99.90;;;;;;5029498;28;20037;-83
2022/02/17 17:09:04;;;;;;;87.43;64.88;;;7.60;99.90;;;;;;5035251;28;20036;-81
2022/02/17 17:11:30;;;;;;;93.15;66.30;;;7.60;99.90;;;;;;5043335;28;20082;-82
2022/02/17 17:13:57;;;;;;;97.63;66.88;;;7.60;99.90;;;;;;5000907;28;20028;-84
2022/02/17 17:16:26;;;;;;;101.75;68.95;;;7.60;99.90;;;;;;5040655;28;20052;-81
2022/02/17 17:18:55;;;;;;;96.20;63.80;;;7.60;99.90;;;;;;5018106;28;20045;-81
2022/02/17 17:21:22;;;;;;;101.35;64.28;;;7.50;99.90;;;;;;5060970;28;20040;-81
2022/02/17 17:23:48;;;;;;;92.85;65.05;;;7.50;99.90;;;;;;5065552;28;20016;-82
2022/02/17 17:26:15;;;;;;;95.18;63.72;;;7.50;99.90;;;;;;5030733;28;20800;-82
2022/02/17 17:28:41;;;;;;;93.32;64.30;;;7.60;99.90;;;;;;5047981;28;20029;-82
2022/02/17 17:31:13;;;;;;;90.35;64.85;;;7.60;99.90;;;;;;5042949;28;20037;-82
2022/02/17 17:33:39;;;;;;;95.30;66.28;;;7.60;99.90;;;;;;5041917;28;20434;-81
2022/02/17 17:36:06;;;;;;;92.22;64.53;;;7.50;99.90;;;;;;5052682;28;20404;-80
2022/02/17 17:38:32;;;;;;;102.85;69.28;;;7.50;99.90;;;;;;5056100;28;20032;-80
2022/02/17 17:40:59;;;;;;;105.18;63.85;;;7.50;99.90;;;;;;5041707;28;20021;-81
2022/02/17 17:43:25;;;;;;;98.65;64.35;;;7.60;99.90;;;;;;5041502;28;20468;-80
2022/02/17 17:45:51;;;;;;;90.95;62.00;;;7.60;99.90;;;;;;5027502;28;20028;-80
2022/02/17 17:48:19;;;;;;;96.88;63.20;;;7.60;99.90;;;;;;5043068;28;20026;-81
2022/02/17 17:50:47;;;;;;;95.47;63.65;;;7.70;99.90;;;;;;5044339;28;20045;-81
2022/02/17 17:53:14;;;;;;;95.18;64.00;;;7.80;99.90;;;;;;5019166;28;20396;-81
2022/02/17 17:55:43;;;;;;;105.35;72.97;;;7.80;99.90;;;;;;5043878;28;20049;-81
2022/02/17 17:58:15;;;;;;;91.63;64.70;;;7.80;99.90;;;;;;5042109;28;20032;-80
2022/02/17 18:00:45;;;;;;;99.68;69.20;;;7.70;99.90;;;;;;5043564;28;20082;-81
2022/02/17 18:03:12;;;;;;;94.88;61.97;;;7.70;99.90;;;;;;5050663;28;20071;-81
2022/02/17 18:05:39;;;;;;;90.07;60.67;;;7.70;99.90;;;;;;5046477;28;20104;-81
2022/02/17 18:08:05;;;;;;;90.57;62.67;;;7.80;99.90;;;;;;5041453;28;20026;-80
2022/02/17 18:10:32;;;;;;;96.55;67.63;;;7.80;99.90;;;;;;5043703;28;20091;-80
2022/02/17 18:13:02;;;;;;;96.78;63.90;;;7.80;99.90;;;;;;5049033;28;20499;-81
2022/02/17 18:15:29;;;;;;;96.55;63.80;;;7.80;99.90;;;;;;5029052;28;20626;-80
2022/02/17 18:17:55;;;;;;;115.28;65.38;;;7.80;99.90;;;;;;5051391;28;20519;-81
2022/02/17 18:20:22;;;;;;;95.03;62.97;;;7.80;99.90;;;;;;5028936;28;20108;-81
2022/02/17 18:22:52;;;;;;;95.03;64.55;;;7.80;99.90;;;;;;5042556;28;20056;-80
2022/02/17 18:25:19;;;;;;;95.60;66.03;;;7.70;99.90;;;;;;5024126;28;20677;-80
2022/02/17 18:27:48;;;;;;;90.18;62.97;;;7.80;99.90;;;;;;5043324;28;20028;-81
2022/02/17 18:30:15;;;;;;;90.40;63.05;;;7.70;99.90;;;;;;5046844;28;20052;-80
2022/02/17 18:32:42;;;;;;;86.80;61.30;;;7.70;99.90;;;;;;5039397;28;20108;-81
2022/02/17 18:35:08;;;;;;;89.05;60.03;;;7.70;99.90;;;;;;5040275;28;20024;-81
2022/02/17 18:37:34;;;;;;;86.40;59.28;;;7.80;99.90;;;;;;5026269;28;20075;-80
2022/02/17 18:40:00;;;;;;;89.47;62.63;;;7.80;99.90;;;;;;5039085;28;20084;-81
2022/02/17 18:42:28;;;;;;;86.80;60.83;;;7.90;99.90;;;;;;5045524;28;20078;-81
2022/02/17 18:45:16;;;;;;;91.00;66.38;;;7.90;99.90;;;;;;5021875;28;20032;-81
2022/02/17 18:47:44;;;;;;;89.63;62.17;;;7.90;99.90;;;;;;5038822;28;20033;-81